createdAt,value
2023-02-22T00:00:02.106Z,1008.22
2023-02-22T00:01:02.090Z,1008.20
2023-02-22T00:02:02.091Z,1008.17
2023-02-22T00:03:02.037Z,1008.17
2023-02-22T00:04:01.980Z,1008.16
2023-02-22T00:05:01.954Z,1008.13
2023-02-22T00:06:01.926Z,1008.11
2023-02-22T00:07:01.895Z,1008.08
2023-02-22T00:08:01.873Z,1008.09
2023-02-22T00:09:01.852Z,1008.07
2023-02-22T00:10:01.831Z,1008.09
2023-02-22T00:11:01.796Z,1008.06
2023-02-22T00:12:01.783Z,1008.06
2023-02-22T00:13:01.758Z,1008.02
2023-02-22T00:14:01.714Z,1008.00
2023-02-22T00:15:01.694Z,1008.03
2023-02-22T00:16:01.711Z,1007.99
2023-02-22T00:17:01.638Z,1007.96
2023-02-22T00:18:01.619Z,1007.99
2023-02-22T00:19:01.591Z,1007.95
2023-02-22T00:20:01.560Z,1007.92
2023-02-22T00:21:01.565Z,1007.96
2023-02-22T00:22:01.506Z,1007.96
2023-02-22T00:23:01.501Z,1007.92
2023-02-22T00:24:01.455Z,1007.93
2023-02-22T00:25:01.433Z,1007.93
2023-02-22T00:26:01.404Z,1007.97
2023-02-22T00:27:01.379Z,1007.98
2023-02-22T00:28:01.353Z,1007.93
2023-02-22T00:29:01.347Z,1007.93
2023-02-22T00:30:01.305Z,1007.95
2023-02-22T00:31:01.277Z,1007.98
2023-02-22T00:32:01.310Z,1007.87
2023-02-22T00:33:01.224Z,1007.91
2023-02-22T00:34:01.198Z,1007.90
2023-02-22T00:35:01.180Z,1007.89
2023-02-22T00:36:01.145Z,1007.92
2023-02-22T00:37:01.119Z,1007.88
2023-02-22T00:38:01.110Z,1007.91
2023-02-22T00:39:01.075Z,1007.88
2023-02-22T00:40:01.041Z,1007.84
2023-02-22T00:41:01.021Z,1007.84
2023-02-22T00:42:00.988Z,1007.81
2023-02-22T00:43:00.969Z,1007.85
2023-02-22T00:44:00.938Z,1007.82
2023-02-22T00:45:00.938Z,1007.81
2023-02-22T00:46:01.029Z,1007.82
2023-02-22T00:47:00.861Z,1007.78
2023-02-22T00:48:00.841Z,1007.76
2023-02-22T00:49:00.811Z,1007.75
2023-02-22T00:50:00.783Z,1007.74
2023-02-22T00:51:00.766Z,1007.75
2023-02-22T00:52:00.735Z,1007.70
2023-02-22T00:53:00.712Z,1007.67
2023-02-22T00:54:00.680Z,1007.69
2023-02-22T00:55:00.656Z,1007.72
2023-02-22T00:56:00.636Z,1007.68
2023-02-22T00:57:00.605Z,1007.72
2023-02-22T00:58:00.580Z,1007.71
2023-02-22T00:59:00.553Z,1007.71
2023-02-22T01:00:00.527Z,1007.68
2023-02-22T01:01:00.560Z,1007.68
2023-02-22T01:02:00.530Z,1007.67
2023-02-22T01:03:00.448Z,1007.64
2023-02-22T01:04:00.434Z,1007.67
2023-02-22T01:05:00.397Z,1007.67
2023-02-22T01:06:00.373Z,1007.63
2023-02-22T01:07:00.360Z,1007.61
2023-02-22T01:08:00.318Z,1007.60
2023-02-22T01:09:00.294Z,1007.60
2023-02-22T01:10:00.267Z,1007.50
2023-02-22T01:11:00.245Z,1007.54
2023-02-22T01:12:00.213Z,1007.56
2023-02-22T01:13:00.189Z,1007.53
2023-02-22T01:14:00.159Z,1007.56
2023-02-22T01:15:00.146Z,1007.55
2023-02-22T01:16:00.133Z,1007.50
2023-02-22T01:17:00.107Z,1007.51
2023-02-22T01:18:00.070Z,1007.49
2023-02-22T01:19:00.033Z,1007.50
2023-02-22T01:20:00.009Z,1007.48
2023-02-22T01:20:59.986Z,1007.48
2023-02-22T01:21:59.958Z,1007.47
2023-02-22T01:22:59.932Z,1007.47
2023-02-22T01:23:59.905Z,1007.46
2023-02-22T01:24:59.877Z,1007.38
2023-02-22T01:25:59.896Z,1007.38
2023-02-22T01:26:59.830Z,1007.36
2023-02-22T01:27:59.802Z,1007.40
2023-02-22T01:28:59.773Z,1007.38
2023-02-22T01:29:59.750Z,1007.40
2023-02-22T01:30:59.949Z,1007.42
2023-02-22T01:31:59.779Z,1007.39
2023-02-22T01:32:59.693Z,1007.35
2023-02-22T01:33:59.643Z,1007.35
2023-02-22T01:34:59.618Z,1007.31
2023-02-22T01:35:59.596Z,1007.34
2023-02-22T01:36:59.568Z,1007.37
2023-02-22T01:37:59.552Z,1007.28
2023-02-22T01:38:59.514Z,1007.26
2023-02-22T01:39:59.488Z,1007.28
2023-02-22T01:40:59.463Z,1007.24
2023-02-22T01:41:59.442Z,1007.18
2023-02-22T01:42:59.419Z,1007.18
2023-02-22T01:43:59.384Z,1007.22
2023-02-22T01:44:59.357Z,1007.22
2023-02-22T01:45:59.411Z,1007.19
2023-02-22T01:46:59.304Z,1007.21
2023-02-22T01:47:59.276Z,1007.18
2023-02-22T01:48:59.273Z,1007.19
2023-02-22T01:49:59.225Z,1007.15
2023-02-22T01:50:59.200Z,1007.15
2023-02-22T01:51:59.178Z,1007.15
2023-02-22T01:52:59.152Z,1007.16
2023-02-22T01:53:59.130Z,1007.18
2023-02-22T01:54:59.103Z,1007.19
2023-02-22T01:55:59.069Z,1007.20
2023-02-22T01:56:59.055Z,1007.22
2023-02-22T01:57:59.035Z,1007.15
2023-02-22T01:58:58.992Z,1007.14
2023-02-22T01:59:58.974Z,1007.14
2023-02-22T02:00:58.940Z,1007.12
2023-02-22T02:01:58.910Z,1007.14
2023-02-22T02:02:58.887Z,1007.09
2023-02-22T02:03:58.976Z,1007.08
2023-02-22T02:04:58.863Z,1007.11
2023-02-22T02:05:58.813Z,1007.12
2023-02-22T02:06:58.790Z,1007.12
2023-02-22T02:07:58.756Z,1007.09
2023-02-22T02:08:58.736Z,1007.15
2023-02-22T02:09:58.706Z,1007.10
2023-02-22T02:10:58.682Z,1007.07
2023-02-22T02:11:58.654Z,1007.09
2023-02-22T02:12:58.628Z,1007.08
2023-02-22T02:13:58.601Z,1007.10
2023-02-22T02:14:58.577Z,1007.09
2023-02-22T02:15:58.638Z,1007.04
2023-02-22T02:16:58.558Z,1007.00
2023-02-22T02:17:58.496Z,1007.01
2023-02-22T02:18:58.476Z,1007.01
2023-02-22T02:19:58.445Z,1007.01
2023-02-22T02:20:58.444Z,1007.01
2023-02-22T02:21:58.395Z,1007.03
2023-02-22T02:22:58.368Z,1007.06
2023-02-22T02:23:58.339Z,1007.01
2023-02-22T02:24:58.316Z,1007.01
2023-02-22T02:25:58.289Z,1006.99
2023-02-22T02:26:58.265Z,1006.94
2023-02-22T02:27:58.239Z,1006.92
2023-02-22T02:28:58.213Z,1006.96
2023-02-22T02:29:58.186Z,1007.00
2023-02-22T02:30:58.240Z,1006.97
2023-02-22T02:31:58.248Z,1007.01
2023-02-22T02:32:58.108Z,1006.99
2023-02-22T02:33:58.082Z,1007.00
2023-02-22T02:34:58.070Z,1006.97
2023-02-22T02:35:58.156Z,1006.94
2023-02-22T02:36:58.023Z,1006.97
2023-02-22T02:37:57.988Z,1006.94
2023-02-22T02:38:58.032Z,1006.92
2023-02-22T02:39:57.953Z,1006.97
2023-02-22T02:40:57.898Z,1006.94
2023-02-22T02:41:57.908Z,1006.95
2023-02-22T02:42:57.852Z,1006.91
2023-02-22T02:43:57.826Z,1006.89
2023-02-22T02:44:57.790Z,1006.90
2023-02-22T02:45:57.772Z,1006.87
2023-02-22T02:46:57.812Z,1006.87
2023-02-22T02:47:57.717Z,1006.89
2023-02-22T02:48:57.703Z,1006.89
2023-02-22T02:49:57.663Z,1006.84
2023-02-22T02:50:57.638Z,1006.86
2023-02-22T02:51:57.608Z,1006.87
2023-02-22T02:52:57.601Z,1006.82
2023-02-22T02:53:57.561Z,1006.80
2023-02-22T02:54:57.531Z,1006.80
2023-02-22T02:55:57.517Z,1006.77
2023-02-22T02:56:57.492Z,1006.76
2023-02-22T02:57:57.457Z,1006.77
2023-02-22T02:58:57.428Z,1006.73
2023-02-22T02:59:57.400Z,1006.72
2023-02-22T03:00:57.379Z,1006.63
2023-02-22T03:01:57.393Z,1006.69
2023-02-22T03:02:57.317Z,1006.66
2023-02-22T03:03:57.299Z,1006.60
2023-02-22T03:04:57.267Z,1006.61
2023-02-22T03:05:57.241Z,1006.61
2023-02-22T03:06:57.213Z,1006.63
2023-02-22T03:07:57.187Z,1006.61
2023-02-22T03:08:57.248Z,1006.58
2023-02-22T03:09:57.134Z,1006.51
2023-02-22T03:10:57.115Z,1006.54
2023-02-22T03:11:57.086Z,1006.53
2023-02-22T03:12:57.053Z,1006.48
2023-02-22T03:13:57.027Z,1006.48
2023-02-22T03:14:57.004Z,1006.49
2023-02-22T03:15:56.989Z,1006.43
2023-02-22T03:16:56.953Z,1006.42
2023-02-22T03:17:56.930Z,1006.35
2023-02-22T03:18:56.898Z,1006.37
2023-02-22T03:19:56.874Z,1006.38
2023-02-22T03:20:56.846Z,1006.32
2023-02-22T03:21:56.819Z,1006.35
2023-02-22T03:22:56.796Z,1006.31
2023-02-22T03:23:56.781Z,1006.28
2023-02-22T03:24:56.760Z,1006.26
2023-02-22T03:25:56.714Z,1006.24
2023-02-22T03:26:56.690Z,1006.26
2023-02-22T03:27:56.658Z,1006.25
2023-02-22T03:28:56.644Z,1006.20
2023-02-22T03:29:56.607Z,1006.17
2023-02-22T03:30:56.634Z,1006.17
2023-02-22T03:31:56.611Z,1006.21
2023-02-22T03:32:56.528Z,1006.15
2023-02-22T03:33:56.500Z,1006.18
2023-02-22T03:34:56.472Z,1006.19
2023-02-22T03:35:56.446Z,1006.17
2023-02-22T03:36:56.420Z,1006.19
2023-02-22T03:37:56.395Z,1006.18
2023-02-22T03:38:56.372Z,1006.16
2023-02-22T03:39:56.345Z,1006.14
2023-02-22T03:40:56.333Z,1006.11
2023-02-22T03:41:56.288Z,1006.12
2023-02-22T03:42:56.260Z,1006.08
2023-02-22T03:43:56.234Z,1006.08
2023-02-22T03:44:56.205Z,1006.05
2023-02-22T03:45:56.186Z,1006.06
2023-02-22T03:46:56.153Z,1006.04
2023-02-22T03:47:56.137Z,1006.03
2023-02-22T03:48:56.123Z,1006.01
2023-02-22T03:49:56.078Z,1006.04
2023-02-22T03:50:56.050Z,1006.08
2023-02-22T03:51:56.022Z,1006.09
2023-02-22T03:52:55.991Z,1006.04
2023-02-22T03:53:55.970Z,1006.03
2023-02-22T03:54:55.945Z,1006.07
2023-02-22T03:55:55.915Z,1006.06
2023-02-22T03:56:55.906Z,1006.05
2023-02-22T03:57:55.862Z,1006.05
2023-02-22T03:58:55.849Z,1006.11
2023-02-22T03:59:55.809Z,1006.10
2023-02-22T04:00:55.778Z,1006.08
2023-02-22T04:01:55.758Z,1006.06
2023-02-22T04:02:55.776Z,1006.09
2023-02-22T04:03:55.706Z,1006.11
2023-02-22T04:04:55.743Z,1006.13
2023-02-22T04:05:55.651Z,1006.09
2023-02-22T04:06:55.623Z,1006.09
2023-02-22T04:07:55.597Z,1006.10
2023-02-22T04:08:55.569Z,1006.12
2023-02-22T04:09:55.543Z,1006.12
2023-02-22T04:10:55.518Z,1006.10
2023-02-22T04:11:55.486Z,1006.09
2023-02-22T04:12:55.480Z,1006.12
2023-02-22T04:13:55.436Z,1006.13
2023-02-22T04:14:55.419Z,1006.07
2023-02-22T04:15:55.405Z,1006.09
2023-02-22T04:16:55.352Z,1006.13
2023-02-22T04:17:55.342Z,1006.12
2023-02-22T04:18:55.302Z,1006.12
2023-02-22T04:19:55.274Z,1006.09
2023-02-22T04:20:55.248Z,1006.09
2023-02-22T04:21:55.227Z,1006.10
2023-02-22T04:22:55.193Z,1006.10
2023-02-22T04:23:55.169Z,1006.08
2023-02-22T04:24:55.138Z,1006.04
2023-02-22T04:25:55.113Z,1006.07
2023-02-22T04:26:55.085Z,1006.10
2023-02-22T04:27:55.067Z,1006.02
2023-02-22T04:28:55.051Z,1006.03
2023-02-22T04:29:55.006Z,1006.01
2023-02-22T04:30:55.009Z,1006.03
2023-02-22T04:31:55.078Z,1006.04
2023-02-22T04:32:54.926Z,1006.01
2023-02-22T04:33:54.895Z,1006.05
2023-02-22T04:34:54.870Z,1006.01
2023-02-22T04:35:54.853Z,1006.01
2023-02-22T04:36:54.823Z,1006.01
2023-02-22T04:37:54.795Z,1006.01
2023-02-22T04:38:54.765Z,1005.99
2023-02-22T04:39:54.767Z,1006.00
2023-02-22T04:40:54.715Z,1005.99
2023-02-22T04:41:54.682Z,1005.97
2023-02-22T04:42:54.657Z,1006.00
2023-02-22T04:43:54.645Z,1006.00
2023-02-22T04:44:54.624Z,1006.02
2023-02-22T04:45:54.577Z,1006.00
2023-02-22T04:46:54.555Z,1005.98
2023-02-22T04:47:54.530Z,1005.94
2023-02-22T04:48:54.495Z,1005.96
2023-02-22T04:49:54.487Z,1005.96
2023-02-22T04:50:54.452Z,1005.94
2023-02-22T04:51:54.417Z,1005.92
2023-02-22T04:52:54.390Z,1005.92
2023-02-22T04:53:54.363Z,1005.93
2023-02-22T04:54:54.343Z,1005.94
2023-02-22T04:55:54.315Z,1005.92
2023-02-22T04:56:54.282Z,1005.96
2023-02-22T04:57:54.259Z,1005.94
2023-02-22T04:58:54.227Z,1005.89
2023-02-22T04:59:54.208Z,1005.94
2023-02-22T05:00:54.192Z,1005.91
2023-02-22T05:01:54.154Z,1005.91
2023-02-22T05:02:54.160Z,1005.95
2023-02-22T05:03:54.098Z,1005.91
2023-02-22T05:04:54.083Z,1005.91
2023-02-22T05:05:54.047Z,1005.93
2023-02-22T05:06:55.060Z,1005.94
2023-02-22T05:07:53.988Z,1005.97
2023-02-22T05:08:53.957Z,1005.89
2023-02-22T05:09:53.934Z,1005.90
2023-02-22T05:10:53.905Z,1005.89
2023-02-22T05:11:53.879Z,1005.88
2023-02-22T05:12:53.850Z,1005.89
2023-02-22T05:13:53.827Z,1005.87
2023-02-22T05:14:53.798Z,1005.86
2023-02-22T05:15:53.806Z,1005.85
2023-02-22T05:16:53.765Z,1005.87
2023-02-22T05:17:53.716Z,1005.89
2023-02-22T05:18:53.689Z,1005.90
2023-02-22T05:19:53.669Z,1005.92
2023-02-22T05:20:53.632Z,1005.89
2023-02-22T05:21:53.621Z,1005.92
2023-02-22T05:22:53.582Z,1005.89
2023-02-22T05:23:53.556Z,1005.86
2023-02-22T05:24:53.532Z,1005.87
2023-02-22T05:25:53.501Z,1005.89
2023-02-22T05:26:53.474Z,1005.90
2023-02-22T05:27:53.465Z,1005.89
2023-02-22T05:28:53.422Z,1005.91
2023-02-22T05:29:53.395Z,1005.82
2023-02-22T05:30:53.365Z,1005.88
2023-02-22T05:31:53.499Z,1005.84
2023-02-22T05:32:53.332Z,1005.83
2023-02-22T05:33:53.294Z,1005.85
2023-02-22T05:34:53.262Z,1005.86
2023-02-22T05:35:53.244Z,1005.84
2023-02-22T05:36:53.211Z,1005.85
2023-02-22T05:37:53.190Z,1005.81
2023-02-22T05:38:53.152Z,1005.85
2023-02-22T05:39:53.129Z,1005.79
2023-02-22T05:40:53.106Z,1005.76
2023-02-22T05:41:53.081Z,1005.77
2023-02-22T05:42:53.047Z,1005.78
2023-02-22T05:43:53.035Z,1005.81
2023-02-22T05:44:52.991Z,1005.77
2023-02-22T05:45:52.975Z,1005.77
2023-02-22T05:46:53.034Z,1005.73
2023-02-22T05:47:52.927Z,1005.74
2023-02-22T05:48:52.900Z,1005.74
2023-02-22T05:49:52.863Z,1005.76
2023-02-22T05:50:52.828Z,1005.69
2023-02-22T05:51:52.805Z,1005.68
2023-02-22T05:52:52.773Z,1005.73
2023-02-22T05:53:52.749Z,1005.69
2023-02-22T05:54:52.721Z,1005.65
2023-02-22T05:55:52.695Z,1005.64
2023-02-22T05:56:52.667Z,1005.63
2023-02-22T05:57:52.646Z,1005.60
2023-02-22T05:58:52.610Z,1005.58
2023-02-22T05:59:52.590Z,1005.57
2023-02-22T06:00:52.574Z,1005.57
2023-02-22T06:01:52.563Z,1005.58
2023-02-22T06:02:52.501Z,1005.59
2023-02-22T06:03:52.480Z,1005.57
2023-02-22T06:04:52.477Z,1005.58
2023-02-22T06:05:52.514Z,1005.57
2023-02-22T06:06:52.398Z,1005.58
2023-02-22T06:07:52.378Z,1005.53
2023-02-22T06:08:52.337Z,1005.57
2023-02-22T06:09:52.316Z,1005.55
2023-02-22T06:10:52.285Z,1005.53
2023-02-22T06:11:54.362Z,1005.52
2023-02-22T06:12:52.237Z,1005.54
2023-02-22T06:13:52.204Z,1005.47
2023-02-22T06:14:52.177Z,1005.49
2023-02-22T06:15:52.156Z,1005.48
2023-02-22T06:16:52.121Z,1005.46
2023-02-22T06:17:52.097Z,1005.48
2023-02-22T06:18:52.071Z,1005.47
2023-02-22T06:19:52.050Z,1005.49
2023-02-22T06:20:52.043Z,1005.47
2023-02-22T06:21:51.988Z,1005.46
2023-02-22T06:22:51.957Z,1005.45
2023-02-22T06:23:51.938Z,1005.47
2023-02-22T06:24:54.043Z,1005.47
2023-02-22T06:25:51.883Z,1005.47
2023-02-22T06:26:51.865Z,1005.47
2023-02-22T06:27:51.824Z,1005.43
2023-02-22T06:28:51.802Z,1005.46
2023-02-22T06:29:51.779Z,1005.47
2023-02-22T06:30:51.741Z,1005.48
2023-02-22T06:31:51.819Z,1005.51
2023-02-22T06:32:51.692Z,1005.51
2023-02-22T06:33:51.684Z,1005.46
2023-02-22T06:34:51.636Z,1005.51
2023-02-22T06:35:51.610Z,1005.49
2023-02-22T06:36:51.632Z,1005.47
2023-02-22T06:37:51.554Z,1005.51
2023-02-22T06:38:51.530Z,1005.48
2023-02-22T06:39:51.503Z,1005.47
2023-02-22T06:40:51.467Z,1005.49
2023-02-22T06:41:51.580Z,1005.47
2023-02-22T06:42:51.469Z,1005.49
2023-02-22T06:43:51.438Z,1005.47
2023-02-22T06:44:51.820Z,1005.49
2023-02-22T06:45:51.442Z,1005.46
2023-02-22T06:46:51.322Z,1005.47
2023-02-22T06:47:51.281Z,1005.44
2023-02-22T06:48:51.251Z,1005.49
2023-02-22T06:49:51.225Z,1005.47
2023-02-22T06:50:51.206Z,1005.46
2023-02-22T06:51:51.171Z,1005.48
2023-02-22T06:52:51.163Z,1005.42
2023-02-22T06:53:51.120Z,1005.42
2023-02-22T06:54:51.087Z,1005.45
2023-02-22T06:55:51.059Z,1005.43
2023-02-22T06:56:51.033Z,1005.39
2023-02-22T06:57:51.006Z,1005.42
2023-02-22T06:58:50.982Z,1005.42
2023-02-22T06:59:50.953Z,1005.44
2023-02-22T07:00:50.981Z,1005.46
2023-02-22T07:01:50.902Z,1005.49
2023-02-22T07:02:50.875Z,1005.42
2023-02-22T07:03:50.843Z,1005.45
2023-02-22T07:04:50.815Z,1005.43
2023-02-22T07:05:50.786Z,1005.44
2023-02-22T07:06:50.761Z,1005.43
2023-02-22T07:07:50.739Z,1005.44
2023-02-22T07:08:50.722Z,1005.47
2023-02-22T07:09:50.679Z,1005.47
2023-02-22T07:10:50.663Z,1005.50
2023-02-22T07:11:50.625Z,1005.56
2023-02-22T07:12:50.597Z,1005.57
2023-02-22T07:13:50.572Z,1005.59
2023-02-22T07:14:50.544Z,1005.62
2023-02-22T07:15:50.515Z,1005.61
2023-02-22T07:16:50.570Z,1005.62
2023-02-22T07:17:50.470Z,1005.59
2023-02-22T07:18:50.436Z,1005.60
2023-02-22T07:19:50.405Z,1005.57
2023-02-22T07:20:50.380Z,1005.61
2023-02-22T07:21:50.352Z,1005.59
2023-02-22T07:22:50.333Z,1005.58
2023-02-22T07:23:50.295Z,1005.59
2023-02-22T07:24:50.303Z,1005.58
2023-02-22T07:25:50.244Z,1005.56
2023-02-22T07:26:50.219Z,1005.52
2023-02-22T07:27:50.185Z,1005.57
2023-02-22T07:28:50.159Z,1005.54
2023-02-22T07:29:50.134Z,1005.53
2023-02-22T07:30:50.106Z,1005.52
2023-02-22T07:31:50.189Z,1005.52
2023-02-22T07:32:50.112Z,1005.43
2023-02-22T07:33:50.040Z,1005.49
2023-02-22T07:34:50.016Z,1005.45
2023-02-22T07:35:49.990Z,1005.49
2023-02-22T07:36:49.955Z,1005.48
2023-02-22T07:37:49.968Z,1005.48
2023-02-22T07:38:49.888Z,1005.51
2023-02-22T07:39:49.869Z,1005.51
2023-02-22T07:40:49.849Z,1005.49
2023-02-22T07:41:49.806Z,1005.50
2023-02-22T07:42:49.773Z,1005.52
2023-02-22T07:43:49.747Z,1005.54
2023-02-22T07:44:49.718Z,1005.54
2023-02-22T07:45:49.748Z,1005.57
2023-02-22T07:46:49.664Z,1005.57
2023-02-22T07:47:49.636Z,1005.57
2023-02-22T07:48:49.609Z,1005.60
2023-02-22T07:49:49.579Z,1005.58
2023-02-22T07:50:49.558Z,1005.55
2023-02-22T07:51:49.525Z,1005.59
2023-02-22T07:52:49.500Z,1005.57
2023-02-22T07:53:49.468Z,1005.59
2023-02-22T07:54:49.442Z,1005.59
2023-02-22T07:55:49.412Z,1005.58
2023-02-22T07:56:49.456Z,1005.54
2023-02-22T07:57:49.412Z,1005.53
2023-02-22T07:58:49.333Z,1005.54
2023-02-22T07:59:49.310Z,1005.52
2023-02-22T08:00:49.278Z,1005.51
2023-02-22T08:01:49.248Z,1005.54
2023-02-22T08:02:49.324Z,1005.53
2023-02-22T08:03:49.244Z,1005.48
2023-02-22T08:04:49.163Z,1005.50
2023-02-22T08:05:49.136Z,1005.48
2023-02-22T08:06:49.114Z,1005.48
2023-02-22T08:07:49.097Z,1005.49
2023-02-22T08:08:49.055Z,1005.49
2023-02-22T08:09:49.381Z,1005.50
2023-02-22T08:10:49.041Z,1005.49
2023-02-22T08:11:48.972Z,1005.49
2023-02-22T08:12:48.991Z,1005.50
2023-02-22T08:13:48.913Z,1005.49
2023-02-22T08:14:48.894Z,1005.45
2023-02-22T08:15:48.856Z,1005.44
2023-02-22T08:16:48.861Z,1005.44
2023-02-22T08:17:48.802Z,1005.40
2023-02-22T08:18:48.784Z,1005.39
2023-02-22T08:19:48.745Z,1005.41
2023-02-22T08:20:48.733Z,1005.35
2023-02-22T08:21:48.690Z,1005.37
2023-02-22T08:22:48.665Z,1005.37
2023-02-22T08:23:48.635Z,1005.42
2023-02-22T08:24:48.608Z,1005.36
2023-02-22T08:25:48.580Z,1005.31
2023-02-22T08:26:48.557Z,1005.29
2023-02-22T08:27:48.524Z,1005.29
2023-02-22T08:28:48.520Z,1005.31
2023-02-22T08:29:48.467Z,1005.26
2023-02-22T08:30:48.528Z,1005.25
2023-02-22T08:31:48.612Z,1005.23
2023-02-22T08:32:48.491Z,1005.20
2023-02-22T08:33:48.354Z,1005.21
2023-02-22T08:34:48.331Z,1005.22
2023-02-22T08:35:48.302Z,1005.20
2023-02-22T08:36:48.274Z,1005.23
2023-02-22T08:37:48.246Z,1005.17
2023-02-22T08:38:48.222Z,1005.15
2023-02-22T08:39:48.193Z,1005.18
2023-02-22T08:40:48.166Z,1005.21
2023-02-22T08:41:48.132Z,1005.20
2023-02-22T08:42:48.106Z,1005.25
2023-02-22T08:43:48.089Z,1005.23
2023-02-22T08:44:48.095Z,1005.23
2023-02-22T08:45:48.094Z,1005.21
2023-02-22T08:46:48.006Z,1005.17
2023-02-22T08:47:47.974Z,1005.12
2023-02-22T08:48:47.949Z,1005.07
2023-02-22T08:49:47.929Z,1005.11
2023-02-22T08:50:47.885Z,1005.12
2023-02-22T08:51:47.852Z,1005.08
2023-02-22T08:52:47.826Z,1005.12
2023-02-22T08:53:47.797Z,1005.13
2023-02-22T08:54:47.772Z,1005.12
2023-02-22T08:55:47.743Z,1005.09
2023-02-22T08:56:47.714Z,1005.08
2023-02-22T08:57:47.684Z,1005.05
2023-02-22T08:58:47.656Z,1005.08
2023-02-22T08:59:47.630Z,1005.06
2023-02-22T09:00:47.620Z,1005.08
2023-02-22T09:01:47.646Z,1005.08
2023-02-22T09:02:47.546Z,1005.04
2023-02-22T09:03:47.556Z,1004.99
2023-02-22T09:04:47.489Z,1004.95
2023-02-22T09:05:47.484Z,1005.00
2023-02-22T09:06:47.435Z,1004.93
2023-02-22T09:07:47.404Z,1004.95
2023-02-22T09:08:47.384Z,1004.97
2023-02-22T09:09:47.404Z,1005.00
2023-02-22T09:10:47.322Z,1004.98
2023-02-22T09:11:47.294Z,1004.99
2023-02-22T09:12:47.264Z,1005.00
2023-02-22T09:13:47.241Z,1004.95
2023-02-22T09:14:47.683Z,1004.96
2023-02-22T09:15:47.217Z,1004.95
2023-02-22T09:16:47.201Z,1004.96
2023-02-22T09:17:47.132Z,1005.04
2023-02-22T09:18:47.101Z,1005.01
2023-02-22T09:19:47.073Z,1005.03
2023-02-22T09:20:47.049Z,1005.05
2023-02-22T09:21:47.030Z,1005.06
2023-02-22T09:22:46.988Z,1005.10
2023-02-22T09:23:46.965Z,1005.08
2023-02-22T09:24:46.934Z,1005.08
2023-02-22T09:25:46.907Z,1005.09
2023-02-22T09:26:46.880Z,1005.05
2023-02-22T09:27:46.852Z,1005.07
2023-02-22T09:28:46.832Z,1005.06
2023-02-22T09:29:46.802Z,1005.06
2023-02-22T09:30:46.944Z,1005.05
2023-02-22T09:31:46.822Z,1005.08
2023-02-22T09:32:46.943Z,1005.11
2023-02-22T09:33:47.547Z,1005.04
2023-02-22T09:34:46.661Z,1005.07
2023-02-22T09:35:46.765Z,1005.06
2023-02-22T09:36:46.606Z,1005.02
2023-02-22T09:37:46.572Z,1005.01
2023-02-22T09:38:46.545Z,1004.99
2023-02-22T09:39:46.571Z,1005.00
2023-02-22T09:40:46.498Z,1005.01
2023-02-22T09:41:46.465Z,1005.04
2023-02-22T09:42:46.436Z,1005.01
2023-02-22T09:43:46.408Z,1005.02
2023-02-22T09:44:46.430Z,1005.04
2023-02-22T09:45:46.359Z,1005.00
2023-02-22T09:46:46.327Z,1004.96
2023-02-22T09:47:46.312Z,1004.96
2023-02-22T09:48:46.292Z,1004.95
2023-02-22T09:49:46.245Z,1004.94
2023-02-22T09:50:46.217Z,1004.94
2023-02-22T09:51:46.191Z,1004.96
2023-02-22T09:52:46.163Z,1004.93
2023-02-22T09:53:46.134Z,1004.96
2023-02-22T09:54:46.108Z,1004.94
2023-02-22T09:55:46.080Z,1004.95
2023-02-22T09:56:46.054Z,1004.93
2023-02-22T09:57:46.025Z,1004.87
2023-02-22T09:58:46.063Z,1004.84
2023-02-22T09:59:45.971Z,1004.87
2023-02-22T10:00:45.946Z,1004.86
2023-02-22T10:01:45.920Z,1004.85
2023-02-22T10:02:45.889Z,1004.87
2023-02-22T10:03:45.882Z,1004.85
2023-02-22T10:04:45.872Z,1004.87
2023-02-22T10:05:45.874Z,1004.85
2023-02-22T10:06:45.780Z,1004.84
2023-02-22T10:07:45.760Z,1004.82
2023-02-22T10:08:45.727Z,1004.84
2023-02-22T10:09:45.700Z,1004.86
2023-02-22T10:10:45.677Z,1004.82
2023-02-22T10:11:45.645Z,1004.80
2023-02-22T10:12:45.616Z,1004.84
2023-02-22T10:13:45.593Z,1004.82
2023-02-22T10:14:45.566Z,1004.83
2023-02-22T10:15:45.537Z,1004.80
2023-02-22T10:16:45.557Z,1004.79
2023-02-22T10:17:45.484Z,1004.75
2023-02-22T10:18:45.462Z,1004.77
2023-02-22T10:19:45.430Z,1004.75
2023-02-22T10:20:45.420Z,1004.71
2023-02-22T10:21:45.380Z,1004.71
2023-02-22T10:22:45.355Z,1004.68
2023-02-22T10:23:45.323Z,1004.69
2023-02-22T10:24:45.296Z,1004.66
2023-02-22T10:25:45.285Z,1004.70
2023-02-22T10:26:45.247Z,1004.70
2023-02-22T10:27:45.217Z,1004.66
2023-02-22T10:28:45.187Z,1004.67
2023-02-22T10:29:45.164Z,1004.67
2023-02-22T10:30:45.163Z,1004.64
2023-02-22T10:31:45.174Z,1004.68
2023-02-22T10:32:45.084Z,1004.63
2023-02-22T10:33:45.058Z,1004.65
2023-02-22T10:34:45.031Z,1004.62
2023-02-22T10:35:46.968Z,1004.60
2023-02-22T10:36:44.994Z,1004.62
2023-02-22T10:37:45.021Z,1004.61
2023-02-22T10:38:44.928Z,1004.62
2023-02-22T10:39:44.966Z,1004.61
2023-02-22T10:40:44.876Z,1004.60
2023-02-22T10:41:44.846Z,1004.63
2023-02-22T10:42:44.820Z,1004.60
2023-02-22T10:43:44.802Z,1004.58
2023-02-22T10:44:44.771Z,1004.65
2023-02-22T10:45:44.782Z,1004.60
2023-02-22T10:46:44.717Z,1004.55
2023-02-22T10:47:44.686Z,1004.55
2023-02-22T10:48:44.666Z,1004.52
2023-02-22T10:49:44.633Z,1004.55
2023-02-22T10:50:44.616Z,1004.54
2023-02-22T10:51:44.581Z,1004.55
2023-02-22T10:52:44.581Z,1004.55
2023-02-22T10:53:44.530Z,1004.56
2023-02-22T10:54:44.506Z,1004.57
2023-02-22T10:55:44.484Z,1004.58
2023-02-22T10:56:44.453Z,1004.56
2023-02-22T10:57:44.451Z,1004.53
2023-02-22T10:58:44.400Z,1004.53
2023-02-22T10:59:44.371Z,1004.54
2023-02-22T11:00:46.601Z,1004.56
2023-02-22T11:01:44.369Z,1004.55
2023-02-22T11:02:44.293Z,1004.56
2023-02-22T11:03:44.266Z,1004.50
2023-02-22T11:04:44.262Z,1004.49
2023-02-22T11:05:44.219Z,1004.50
2023-02-22T11:06:44.190Z,1004.46
2023-02-22T11:07:44.160Z,1004.48
2023-02-22T11:08:44.164Z,1004.48
2023-02-22T11:09:44.108Z,1004.48
2023-02-22T11:10:44.083Z,1004.42
2023-02-22T11:11:44.069Z,1004.44
2023-02-22T11:12:44.029Z,1004.42
2023-02-22T11:13:44.008Z,1004.41
2023-02-22T11:14:43.974Z,1004.39
2023-02-22T11:15:43.951Z,1004.36
2023-02-22T11:16:43.958Z,1004.36
2023-02-22T11:17:43.899Z,1004.33
2023-02-22T11:18:43.871Z,1004.35
2023-02-22T11:19:43.859Z,1004.33
2023-02-22T11:20:43.822Z,1004.32
2023-02-22T11:21:43.806Z,1004.32
2023-02-22T11:22:43.770Z,1004.32
2023-02-22T11:23:45.032Z,1004.31
2023-02-22T11:24:49.204Z,1004.29
2023-02-22T11:25:43.697Z,1004.27
2023-02-22T11:26:43.694Z,1004.24
2023-02-22T11:27:43.640Z,1004.29
2023-02-22T11:28:43.611Z,1004.24
2023-02-22T11:29:43.589Z,1004.24
2023-02-22T11:30:43.697Z,1004.22
2023-02-22T11:31:43.690Z,1004.22
2023-02-22T11:32:43.523Z,1004.22
2023-02-22T11:33:43.485Z,1004.21
2023-02-22T11:34:43.461Z,1004.20
2023-02-22T11:35:43.434Z,1004.23
2023-02-22T11:36:43.406Z,1004.20
2023-02-22T11:37:43.390Z,1004.17
2023-02-22T11:38:43.354Z,1004.16
2023-02-22T11:39:43.418Z,1004.17
2023-02-22T11:40:43.320Z,1004.18
2023-02-22T11:41:43.278Z,1004.13
2023-02-22T11:42:43.250Z,1004.13
2023-02-22T11:43:43.231Z,1004.12
2023-02-22T11:44:43.196Z,1004.16
2023-02-22T11:45:52.970Z,1004.12
2023-02-22T11:46:43.202Z,1004.12
2023-02-22T11:47:43.122Z,1004.10
2023-02-22T11:48:43.096Z,1004.12
2023-02-22T11:49:43.183Z,1004.10
2023-02-22T11:50:43.086Z,1004.11
2023-02-22T11:51:43.032Z,1004.08
2023-02-22T11:52:42.992Z,1004.05
2023-02-22T11:53:42.970Z,1003.99
2023-02-22T11:54:42.942Z,1004.04
2023-02-22T11:55:43.665Z,1004.04
2023-02-22T11:56:43.429Z,1004.02
2023-02-22T11:57:42.869Z,1003.98
2023-02-22T11:58:42.850Z,1003.97
2023-02-22T11:59:42.818Z,1004.01
2023-02-22T12:00:42.790Z,1003.94
2023-02-22T12:01:42.765Z,1003.94
2023-02-22T12:02:51.842Z,1003.93
2023-02-22T12:03:42.766Z,1003.91
2023-02-22T12:04:42.794Z,1003.93